Time;durP1;ratioP1;P1;durP2;ratioP2;P2;SDS_P1;SDS_P2;PMS_P1;PMS_P2;Temp;Humidity;BMP_temperature;BMP_pressure;BME280_temperature;BME280_humidity;BME280_pressure;Samples;Min_cycle;Max_cycle;Signal;HPM_P1;HPM_P2
2021/06/06 00:00:39;;;;;;;5.27;2.90;;;16.50;99.70;;;;;;5051521;28;20522;-68
2021/06/06 00:03:08;;;;;;;4.50;2.67;;;16.40;99.70;;;;;;5051852;28;20763;-68
2021/06/06 00:05:44;;;;;;;4.80;3.03;;;16.50;99.70;;;;;;5051700;28;20471;-68
2021/06/06 00:08:11;;;;;;;7.43;2.70;;;16.50;99.70;;;;;;5051756;28;20831;-68
2021/06/06 00:10:38;;;;;;;5.07;2.50;;;16.50;99.70;;;;;;5051655;28;20446;-68
2021/06/06 00:13:04;;;;;;;5.73;2.93;;;16.50;99.70;;;;;;5051328;28;20440;-68
2021/06/06 00:15:31;;;;;;;4.30;2.70;;;16.40;99.70;;;;;;5051453;28;20460;-68
2021/06/06 00:17:57;;;;;;;7.97;3.03;;;16.30;99.70;;;;;;5052635;28;20519;-68
2021/06/06 00:20:26;;;;;;;4.37;2.53;;;16.40;99.70;;;;;;5051557;28;20498;-68
2021/06/06 00:22:53;;;;;;;5.60;2.80;;;16.30;99.70;;;;;;5051035;28;20479;-68
2021/06/06 00:25:22;;;;;;;14.53;4.93;;;16.40;99.70;;;;;;5051301;28;21039;-68
2021/06/06 00:27:48;;;;;;;10.90;4.20;;;16.40;99.70;;;;;;5051245;28;20944;-68
2021/06/06 00:30:15;;;;;;;6.60;2.80;;;16.30;99.70;;;;;;5051320;28;20940;-68
2021/06/06 00:32:42;;;;;;;5.90;3.13;;;16.40;99.70;;;;;;5050350;28;20447;-68
2021/06/06 00:35:10;;;;;;;6.90;3.20;;;16.30;99.70;;;;;;5051023;28;20464;-68
2021/06/06 00:37:36;;;;;;;5.17;2.60;;;16.30;99.70;;;;;;5050997;28;20443;-67
2021/06/06 00:40:03;;;;;;;6.77;3.20;;;16.30;99.70;;;;;;5051040;28;20440;-68
2021/06/06 00:42:31;;;;;;;7.73;3.00;;;16.30;99.70;;;;;;5050898;28;20483;-68
2021/06/06 00:44:58;;;;;;;6.87;2.90;;;16.30;99.70;;;;;;5051026;28;20470;-68
2021/06/06 00:47:25;;;;;;;4.17;3.07;;;16.30;99.70;;;;;;5050866;28;20443;-68
2021/06/06 00:49:52;;;;;;;8.17;2.90;;;16.30;99.70;;;;;;5050903;28;20470;-68
2021/06/06 00:52:19;;;;;;;6.47;2.87;;;16.30;99.70;;;;;;5051022;28;20807;-68
2021/06/06 00:54:48;;;;;;;4.10;2.50;;;16.30;99.70;;;;;;5050392;28;20470;-68
2021/06/06 00:57:19;;;;;;;5.47;2.30;;;16.30;99.70;;;;;;5050765;28;20450;-68
2021/06/06 00:59:50;;;;;;;5.17;2.10;;;16.30;99.70;;;;;;5050416;28;20889;-68
2021/06/06 01:02:16;;;;;;;4.33;2.10;;;16.20;99.70;;;;;;5050829;28;20506;-68
2021/06/06 01:04:44;;;;;;;4.20;2.70;;;16.20;99.70;;;;;;5050055;28;20487;-68
2021/06/06 01:07:11;;;;;;;5.80;2.40;;;16.20;99.70;;;;;;5050584;28;20444;-68
2021/06/06 01:09:37;;;;;;;4.70;2.67;;;16.10;99.70;;;;;;5050584;28;21032;-68
2021/06/06 01:12:11;;;;;;;7.43;2.87;;;16.20;99.70;;;;;;5050687;28;20451;-68
2021/06/06 01:14:42;;;;;;;5.87;2.67;;;16.10;99.70;;;;;;5050237;28;20554;-68
2021/06/06 01:17:14;;;;;;;6.33;2.60;;;16.10;99.70;;;;;;5050558;28;20446;-68
2021/06/06 01:19:46;;;;;;;5.47;2.87;;;16.10;99.70;;;;;;5050454;28;20458;-68
2021/06/06 01:22:25;;;;;;;4.97;2.50;;;16.20;99.70;;;;;;5050470;28;21029;-68
2021/06/06 01:24:56;;;;;;;4.83;2.53;;;16.20;99.70;;;;;;5050044;28;20474;-68
2021/06/06 01:27:28;;;;;;;4.40;2.37;;;16.20;99.70;;;;;;5050360;28;20448;-68
2021/06/06 01:29:59;;;;;;;5.70;2.37;;;16.10;99.70;;;;;;5050481;28;20509;-68
2021/06/06 01:32:29;;;;;;;4.33;2.13;;;16.10;99.70;;;;;;5050535;28;20895;-68
2021/06/06 01:35:00;;;;;;;5.60;2.37;;;16.10;99.70;;;;;;5050002;28;20467;-68
2021/06/06 01:37:29;;;;;;;6.43;3.20;;;16.10;99.70;;;;;;5050382;28;20440;-68
2021/06/06 01:40:01;;;;;;;6.10;2.97;;;16.10;99.70;;;;;;5050266;28;20444;-68
2021/06/06 01:42:30;;;;;;;5.77;2.63;;;16.10;99.70;;;;;;5049826;28;20854;-68
2021/06/06 01:45:01;;;;;;;5.87;2.60;;;16.10;99.70;;;;;;5049735;28;20521;-68
2021/06/06 01:47:29;;;;;;;6.63;3.33;;;16.20;99.70;;;;;;5050217;28;20454;-68
2021/06/06 01:50:03;;;;;;;3.63;2.40;;;16.20;99.70;;;;;;5050221;28;20451;-68
2021/06/06 01:52:33;;;;;;;7.30;2.70;;;16.10;99.70;;;;;;5050001;28;20449;-68
2021/06/06 01:55:06;;;;;;;5.83;3.17;;;16.10;99.70;;;;;;5050111;28;20468;-68
2021/06/06 01:57:32;;;;;;;5.47;2.47;;;16.10;99.70;;;;;;5050108;28;20452;-68
2021/06/06 02:00:00;;;;;;;9.07;3.10;;;16.10;99.70;;;;;;5049761;28;20501;-68
2021/06/06 02:02:26;;;;;;;4.03;2.50;;;16.10;99.70;;;;;;5050030;28;20519;-68
2021/06/06 02:04:53;;;;;;;4.97;2.60;;;16.00;99.70;;;;;;5049459;28;20476;-68
2021/06/06 02:07:23;;;;;;;5.10;2.50;;;16.00;99.70;;;;;;5049908;28;20452;-68
2021/06/06 02:09:52;;;;;;;5.30;2.63;;;16.00;99.70;;;;;;5049925;28;20443;-68
2021/06/06 02:12:23;;;;;;;6.13;2.90;;;16.00;99.70;;;;;;5049971;28;20443;-68
2021/06/06 02:14:50;;;;;;;5.40;2.37;;;16.00;99.70;;;;;;5049626;28;20471;-68
2021/06/06 02:17:29;;;;;;;7.47;2.50;;;16.00;99.70;;;;;;5049957;28;20451;-68
2021/06/06 02:19:57;;;;;;;8.53;2.77;;;16.00;99.70;;;;;;5049883;28;20489;-68
2021/06/06 02:22:23;;;;;;;7.50;2.80;;;16.00;99.70;;;;;;5049833;28;20511;-68
2021/06/06 02:24:50;;;;;;;6.10;2.77;;;16.00;99.70;;;;;;5049416;28;20468;-68
2021/06/06 02:27:23;;;;;;;4.13;2.33;;;15.90;99.70;;;;;;5049773;28;20458;-68
2021/06/06 02:29:57;;;;;;;4.80;2.57;;;16.00;99.70;;;;;;5049751;28;20943;-68
2021/06/06 02:32:31;;;;;;;4.90;3.00;;;16.10;99.70;;;;;;5049791;28;20857;-68
2021/06/06 02:35:05;;;;;;;6.40;2.87;;;16.00;99.70;;;;;;5049456;28;20464;-68
2021/06/06 02:37:38;;;;;;;5.40;2.47;;;16.10;99.70;;;;;;5049694;28;20455;-68
2021/06/06 02:40:09;;;;;;;4.93;2.30;;;16.00;99.70;;;;;;5049548;28;20455;-68
2021/06/06 02:42:43;;;;;;;5.23;2.50;;;16.00;99.70;;;;;;5049281;28;20479;-68
2021/06/06 02:45:12;;;;;;;4.93;2.40;;;16.00;99.70;;;;;;5049449;28;20533;-68
2021/06/06 02:47:39;;;;;;;4.60;2.60;;;15.90;99.70;;;;;;5049552;28;20444;-68
2021/06/06 02:50:12;;;;;;;5.93;2.00;;;15.90;99.70;;;;;;5049289;28;20443;-68
2021/06/06 02:52:41;;;;;;;5.83;2.53;;;15.90;99.70;;;;;;5049210;28;20440;-68
2021/06/06 02:55:12;;;;;;;7.43;2.50;;;15.90;99.70;;;;;;5051200;28;20468;-68
2021/06/06 02:57:44;;;;;;;4.90;2.37;;;15.90;99.70;;;;;;5053114;28;20483;-68
2021/06/06 03:00:16;;;;;;;5.63;2.40;;;15.90;99.70;;;;;;5052822;28;20451;-68
2021/06/06 03:02:48;;;;;;;3.40;1.93;;;15.90;99.70;;;;;;5052652;28;20483;-68
2021/06/06 03:05:17;;;;;;;5.63;2.03;;;15.90;99.70;;;;;;5052673;28;20482;-68
2021/06/06 03:07:47;;;;;;;4.00;2.43;;;15.90;99.70;;;;;;5052920;28;20450;-69
2021/06/06 03:10:18;;;;;;;5.87;2.70;;;16.10;99.70;;;;;;5052800;28;20499;-68
2021/06/06 03:12:48;;;;;;;4.83;1.87;;;15.90;99.70;;;;;;5052698;28;20455;-68
2021/06/06 03:15:17;;;;;;;3.03;1.83;;;15.80;99.70;;;;;;5052504;28;20466;-68
2021/06/06 03:17:46;;;;;;;8.37;2.30;;;15.90;99.70;;;;;;5052767;28;20443;-68
2021/06/06 03:20:17;;;;;;;6.90;2.70;;;15.90;99.70;;;;;;5052588;28;20493;-68
2021/06/06 03:22:46;;;;;;;4.00;2.20;;;15.90;99.70;;;;;;5052476;28;20853;-68
2021/06/06 03:25:17;;;;;;;4.30;2.37;;;15.90;99.70;;;;;;5052420;28;20660;-68
2021/06/06 03:27:47;;;;;;;4.47;2.40;;;15.80;99.70;;;;;;5052502;28;20448;-68
2021/06/06 03:30:33;;;;;;;4.97;2.40;;;15.90;99.70;;;;;;5052392;28;20466;-68
2021/06/06 03:33:02;;;;;;;5.07;2.33;;;15.80;99.70;;;;;;5052228;28;20444;-68
2021/06/06 03:35:29;;;;;;;5.03;2.27;;;15.80;99.70;;;;;;5052259;28;20464;-68
2021/06/06 03:37:55;;;;;;;3.80;2.40;;;15.90;99.70;;;;;;5052230;28;20451;-68
2021/06/06 03:40:23;;;;;;;4.23;2.37;;;15.90;99.70;;;;;;5052171;28;20447;-68
2021/06/06 03:42:51;;;;;;;3.50;2.17;;;15.80;99.70;;;;;;5051916;28;20479;-68
2021/06/06 03:45:17;;;;;;;3.83;2.10;;;15.80;99.70;;;;;;5052026;28;20459;-68
2021/06/06 03:47:44;;;;;;;4.03;2.10;;;15.80;99.70;;;;;;5052062;28;20443;-68
2021/06/06 03:50:14;;;;;;;3.60;2.20;;;15.80;99.70;;;;;;5052038;28;20439;-68
2021/06/06 03:52:40;;;;;;;4.07;2.17;;;15.80;99.70;;;;;;5051788;28;20452;-68
2021/06/06 03:55:09;;;;;;;4.33;2.43;;;15.80;99.70;;;;;;5051942;28;20474;-68
2021/06/06 03:57:35;;;;;;;4.53;2.80;;;15.80;99.70;;;;;;5051774;28;20443;-68
2021/06/06 04:00:09;;;;;;;5.30;2.63;;;15.80;99.70;;;;;;5051608;28;20451;-68
2021/06/06 04:02:35;;;;;;;5.07;2.27;;;15.80;99.70;;;;;;5051571;28;20479;-68
2021/06/06 04:05:01;;;;;;;4.73;2.83;;;15.80;99.70;;;;;;5051506;28;20536;-68
2021/06/06 04:07:27;;;;;;;5.80;2.23;;;15.90;99.70;;;;;;5050717;28;20444;-68
2021/06/06 04:09:53;;;;;;;3.97;2.30;;;15.90;99.70;;;;;;5051890;28;20529;-68
2021/06/06 04:12:19;;;;;;;7.30;2.53;;;15.80;99.70;;;;;;5051772;28;20815;-68
2021/06/06 04:14:46;;;;;;;5.70;2.30;;;15.80;99.70;;;;;;5051457;28;20470;-68
2021/06/06 04:17:13;;;;;;;7.40;3.07;;;15.80;99.70;;;;;;5051496;28;20521;-68
2021/06/06 04:19:39;;;;;;;6.00;2.50;;;15.80;99.70;;;;;;5051668;28;20450;-68
2021/06/06 04:22:05;;;;;;;4.83;2.50;;;15.70;99.70;;;;;;5051322;28;20600;-68
2021/06/06 04:24:32;;;;;;;6.50;2.90;;;15.80;99.70;;;;;;5051183;28;20486;-68
2021/06/06 04:26:58;;;;;;;4.87;2.60;;;15.80;99.70;;;;;;5051439;28;20834;-68
2021/06/06 04:29:24;;;;;;;3.97;2.40;;;15.80;99.70;;;;;;5051408;28;20876;-68
2021/06/06 04:31:50;;;;;;;8.67;2.90;;;15.80;99.70;;;;;;5051382;28;20466;-69
2021/06/06 04:34:18;;;;;;;5.90;2.37;;;15.80;99.70;;;;;;5050843;28;20463;-68
2021/06/06 04:36:48;;;;;;;5.87;2.67;;;15.70;99.70;;;;;;5051137;28;20455;-68
2021/06/06 04:39:14;;;;;;;5.90;2.63;;;15.80;99.70;;;;;;5051386;28;20444;-68
2021/06/06 04:41:40;;;;;;;4.93;2.63;;;15.80;99.70;;;;;;5051093;28;20977;-68
2021/06/06 04:44:06;;;;;;;5.90;2.50;;;15.70;99.70;;;;;;5050797;28;20513;-68
2021/06/06 04:46:33;;;;;;;5.53;3.10;;;15.70;99.70;;;;;;5050918;28;20444;-68
2021/06/06 04:48:59;;;;;;;5.53;2.90;;;15.70;99.70;;;;;;5051009;28;20897;-68
2021/06/06 04:51:27;;;;;;;7.00;2.30;;;15.80;99.70;;;;;;5050819;28;20456;-68
2021/06/06 04:53:54;;;;;;;5.73;2.83;;;15.70;99.70;;;;;;5050475;28;20954;-68
2021/06/06 04:56:23;;;;;;;7.80;2.73;;;15.70;99.70;;;;;;5050797;28;20935;-68
2021/06/06 04:58:50;;;;;;;8.23;3.03;;;15.70;99.70;;;;;;5050789;28;20447;-68
2021/06/06 05:01:17;;;;;;;8.13;3.47;;;15.60;99.70;;;;;;5050366;28;20455;-68
2021/06/06 05:03:43;;;;;;;6.80;2.70;;;15.70;99.70;;;;;;5050420;28;20448;-68
2021/06/06 05:06:10;;;;;;;5.40;3.00;;;15.70;99.70;;;;;;5050768;28;20439;-68
2021/06/06 05:08:38;;;;;;;6.47;3.00;;;15.70;99.70;;;;;;5050495;28;20448;-68
2021/06/06 05:11:05;;;;;;;5.93;2.50;;;15.80;99.70;;;;;;5050657;28;20452;-68
2021/06/06 05:13:31;;;;;;;9.03;3.00;;;15.70;99.70;;;;;;5050207;28;20947;-68
2021/06/06 05:15:58;;;;;;;5.93;2.67;;;15.70;99.70;;;;;;5050522;28;20463;-68
2021/06/06 05:18:25;;;;;;;3.53;2.33;;;15.70;99.70;;;;;;5050083;28;20450;-68
2021/06/06 05:20:52;;;;;;;5.40;2.60;;;15.70;99.70;;;;;;5050491;28;20459;-68
2021/06/06 05:23:21;;;;;;;5.60;1.90;;;15.70;99.70;;;;;;5049900;28;20577;-68
2021/06/06 05:25:50;;;;;;;6.80;3.00;;;15.70;99.70;;;;;;5050349;28;20474;-68
2021/06/06 05:28:20;;;;;;;7.50;2.90;;;15.70;99.70;;;;;;5050317;28;20452;-68
2021/06/06 05:30:46;;;;;;;6.40;2.97;;;15.70;99.70;;;;;;5050406;28;20724;-68
2021/06/06 05:33:13;;;;;;;7.20;3.07;;;15.70;99.70;;;;;;5050015;28;20454;-68
2021/06/06 05:35:39;;;;;;;13.13;4.20;;;15.60;99.70;;;;;;5050373;28;20475;-68
2021/06/06 05:38:08;;;;;;;13.73;3.53;;;15.60;99.70;;;;;;5050299;28;20436;-68
2021/06/06 05:40:36;;;;;;;8.87;3.23;;;15.50;99.70;;;;;;5050215;28;20443;-68
2021/06/06 05:43:05;;;;;;;5.40;2.63;;;15.60;99.70;;;;;;5050051;28;20483;-68
2021/06/06 05:45:33;;;;;;;6.90;3.00;;;15.60;99.70;;;;;;5050431;28;20541;-67
2021/06/06 05:47:59;;;;;;;6.00;3.00;;;15.60;99.70;;;;;;5050564;28;20448;-67
2021/06/06 05:50:31;;;;;;;4.63;2.43;;;15.60;99.70;;;;;;5050765;28;20446;-68
2021/06/06 05:52:57;;;;;;;5.23;2.53;;;15.60;99.70;;;;;;5049843;28;20455;-68
2021/06/06 05:55:24;;;;;;;4.77;2.60;;;15.60;99.70;;;;;;5049937;28;20470;-68
2021/06/06 05:57:50;;;;;;;7.20;2.90;;;15.70;99.70;;;;;;5049927;28;20439;-68
2021/06/06 06:00:22;;;;;;;4.90;2.60;;;15.60;99.70;;;;;;5049545;28;20443;-68
2021/06/06 06:02:48;;;;;;;6.33;2.80;;;15.70;99.70;;;;;;5049743;28;20479;-68
2021/06/06 06:05:15;;;;;;;5.67;3.00;;;15.70;99.70;;;;;;5049703;28;20889;-68
2021/06/06 06:07:42;;;;;;;7.80;3.13;;;15.70;99.70;;;;;;5049817;28;20544;-67
2021/06/06 06:10:10;;;;;;;5.57;2.77;;;15.60;99.70;;;;;;5050178;28;20824;-68
2021/06/06 06:12:36;;;;;;;6.77;2.60;;;15.70;99.70;;;;;;5049622;28;20450;-68
2021/06/06 06:15:04;;;;;;;5.37;2.90;;;15.70;99.70;;;;;;5049844;28;20464;-68
2021/06/06 06:20:09;;;;;;;3.63;3.00;;;15.70;99.70;;;;;;5087098;22;20529;-66
2021/06/06 06:22:35;;;;;;;4.80;3.00;;;15.70;99.70;;;;;;5068353;28;20560;-65
2021/06/06 06:25:02;;;;;;;6.43;2.77;;;15.70;99.70;;;;;;5068758;28;20442;-66
2021/06/06 06:27:28;;;;;;;5.97;2.90;;;15.70;99.70;;;;;;5068730;28;20447;-65
2021/06/06 06:29:54;;;;;;;4.07;2.17;;;15.70;99.70;;;;;;5051890;28;20471;-65
2021/06/06 06:32:20;;;;;;;5.80;2.83;;;15.60;99.70;;;;;;5052503;28;20432;-65
2021/06/06 06:34:46;;;;;;;8.70;2.60;;;15.60;99.70;;;;;;5051905;28;20440;-64
2021/06/06 06:37:14;;;;;;;5.10;2.30;;;15.60;99.70;;;;;;5052272;28;20443;-65
2021/06/06 06:39:40;;;;;;;7.20;3.30;;;15.60;99.70;;;;;;5048216;28;20476;-66
2021/06/06 06:42:07;;;;;;;7.27;2.50;;;15.50;99.70;;;;;;5036709;28;20537;-63
2021/06/06 06:44:33;;;;;;;8.60;3.03;;;15.60;99.70;;;;;;5042380;28;20448;-64
2021/06/06 06:46:59;;;;;;;5.90;2.60;;;15.60;99.70;;;;;;5052140;28;20489;-64
2021/06/06 06:49:25;;;;;;;8.20;2.93;;;15.60;99.70;;;;;;5052686;28;20470;-65
2021/06/06 06:51:51;;;;;;;4.97;2.67;;;15.60;99.70;;;;;;5051517;28;20962;-64
2021/06/06 06:54:19;;;;;;;6.47;2.60;;;15.60;99.70;;;;;;5069055;28;20442;-66
2021/06/06 06:56:45;;;;;;;7.30;2.90;;;15.60;99.70;;;;;;5071839;28;20446;-64
2021/06/06 06:59:11;;;;;;;5.77;2.90;;;15.60;99.70;;;;;;5071853;28;20466;-65
2021/06/06 07:01:37;;;;;;;4.90;2.80;;;15.60;99.70;;;;;;5071017;28;20464;-64
2021/06/06 07:04:04;;;;;;;6.33;3.07;;;15.60;99.70;;;;;;5071396;28;20434;-64
2021/06/06 07:06:30;;;;;;;5.90;2.97;;;15.70;99.70;;;;;;5072073;28;20472;-65
2021/06/06 07:08:56;;;;;;;4.20;2.60;;;15.70;99.70;;;;;;5071804;28;20480;-64
2021/06/06 07:11:24;;;;;;;6.83;3.03;;;15.60;99.70;;;;;;5072011;28;21212;-65
2021/06/06 07:13:51;;;;;;;6.30;3.33;;;15.70;99.70;;;;;;5071204;28;20439;-66
2021/06/06 07:16:19;;;;;;;6.87;2.87;;;15.70;99.70;;;;;;5071738;28;20507;-63
2021/06/06 07:18:46;;;;;;;6.20;3.40;;;15.70;99.70;;;;;;5071334;28;20474;-66
2021/06/06 07:21:16;;;;;;;7.33;3.00;;;15.60;99.70;;;;;;5071724;28;20445;-65
2021/06/06 07:23:44;;;;;;;6.97;2.90;;;15.70;99.70;;;;;;5070870;28;20514;-65
2021/06/06 07:26:15;;;;;;;6.37;3.17;;;15.60;99.70;;;;;;5071748;28;20470;-65
2021/06/06 07:28:42;;;;;;;8.17;3.10;;;15.70;99.70;;;;;;5071007;28;20458;-65
2021/06/06 07:31:09;;;;;;;6.80;2.60;;;15.70;99.70;;;;;;5071624;28;20443;-65
2021/06/06 07:33:38;;;;;;;6.73;2.73;;;15.70;99.70;;;;;;5070912;28;20850;-66
2021/06/06 07:36:06;;;;;;;6.03;3.10;;;15.60;99.70;;;;;;5071552;28;20443;-64
2021/06/06 07:38:32;;;;;;;6.67;3.43;;;15.70;99.70;;;;;;5071128;28;20466;-65
2021/06/06 07:41:00;;;;;;;5.10;2.63;;;15.70;99.70;;;;;;5056114;28;20451;-65
2021/06/06 07:43:26;;;;;;;5.47;2.70;;;15.70;99.70;;;;;;5050619;28;20537;-65
2021/06/06 07:45:54;;;;;;;5.77;3.20;;;15.70;99.70;;;;;;5051204;28;20444;-65
2021/06/06 07:48:21;;;;;;;4.53;2.53;;;15.80;99.70;;;;;;5050908;28;20469;-63
2021/06/06 07:50:49;;;;;;;5.80;3.03;;;15.60;99.70;;;;;;5051134;28;20820;-65
2021/06/06 07:53:16;;;;;;;7.87;3.17;;;15.70;99.70;;;;;;5050446;28;20965;-65
2021/06/06 07:55:43;;;;;;;6.30;3.30;;;15.70;99.70;;;;;;5051175;28;20943;-64
2021/06/06 07:58:10;;;;;;;7.97;2.60;;;15.80;99.70;;;;;;5050820;28;20463;-64
2021/06/06 08:00:38;;;;;;;5.77;3.30;;;15.70;99.70;;;;;;5049600;28;21037;-66
2021/06/06 08:03:07;;;;;;;6.00;3.10;;;15.70;99.70;;;;;;5050449;28;20483;-64
2021/06/06 08:05:34;;;;;;;4.63;2.40;;;15.70;99.70;;;;;;5050805;28;20471;-65
2021/06/06 08:08:01;;;;;;;7.93;3.30;;;15.70;99.70;;;;;;5050547;28;20893;-66
2021/06/06 08:10:28;;;;;;;6.90;3.27;;;15.70;99.70;;;;;;5050882;28;20454;-65
2021/06/06 08:12:55;;;;;;;5.33;3.40;;;15.60;99.70;;;;;;5050277;28;20574;-65
2021/06/06 08:15:23;;;;;;;7.80;3.03;;;15.60;99.70;;;;;;5050801;28;20850;-64
2021/06/06 08:17:50;;;;;;;8.60;3.40;;;15.60;99.70;;;;;;5050432;28;20485;-67
2021/06/06 08:20:23;;;;;;;9.30;3.70;;;15.60;99.70;;;;;;5050705;28;20440;-65
2021/06/06 08:22:49;;;;;;;6.10;2.90;;;15.70;99.70;;;;;;5050043;28;21005;-65
2021/06/06 08:25:17;;;;;;;12.90;3.23;;;15.70;99.70;;;;;;5050342;28;20447;-64
2021/06/06 08:27:43;;;;;;;8.23;3.30;;;15.60;99.70;;;;;;5050174;28;20471;-67
2021/06/06 08:30:13;;;;;;;7.17;3.07;;;15.70;99.70;;;;;;5050620;28;20783;-66
2021/06/06 08:32:40;;;;;;;9.47;3.47;;;15.70;99.70;;;;;;5049910;28;20935;-65
2021/06/06 08:35:07;;;;;;;7.00;2.83;;;15.70;99.70;;;;;;5050295;28;20936;-65
2021/06/06 08:37:35;;;;;;;7.90;3.27;;;15.70;99.70;;;;;;5050117;28;20444;-66
2021/06/06 08:40:02;;;;;;;9.03;2.70;;;15.70;99.70;;;;;;5049896;28;20521;-65
2021/06/06 08:42:31;;;;;;;10.83;3.87;;;15.70;99.70;;;;;;5050205;28;20857;-65
2021/06/06 08:45:05;;;;;;;8.80;3.77;;;15.70;99.70;;;;;;5049705;28;20448;-65
2021/06/06 08:47:32;;;;;;;8.33;2.80;;;15.70;99.70;;;;;;5049864;28;20838;-66
2021/06/06 08:50:01;;;;;;;9.23;3.10;;;15.70;99.70;;;;;;5049816;28;20468;-65
2021/06/06 08:52:36;;;;;;;7.83;3.50;;;15.80;99.70;;;;;;5049568;28;20444;-67
2021/06/06 08:55:11;;;;;;;6.20;2.77;;;15.80;99.70;;;;;;5049859;28;20548;-65
2021/06/06 08:57:41;;;;;;;7.53;3.47;;;15.70;99.70;;;;;;5049690;28;20468;-63
2021/06/06 09:00:13;;;;;;;11.80;3.03;;;15.70;99.70;;;;;;5047680;28;20452;-65
2021/06/06 09:02:47;;;;;;;8.37;3.60;;;15.60;99.70;;;;;;5049198;28;20860;-63
2021/06/06 09:05:26;;;;;;;7.70;3.90;;;15.70;99.70;;;;;;5049615;28;20469;-64
2021/06/06 09:07:55;;;;;;;8.97;3.20;;;15.70;99.70;;;;;;5049629;28;20451;-65
2021/06/06 09:10:26;;;;;;;9.10;3.90;;;15.70;99.70;;;;;;5049553;28;20450;-63
2021/06/06 09:12:54;;;;;;;9.23;3.90;;;15.70;99.70;;;;;;5049099;28;20448;-68
2021/06/06 09:15:22;;;;;;;9.27;4.40;;;15.70;99.70;;;;;;5049446;28;20457;-65
2021/06/06 09:17:53;;;;;;;9.03;3.93;;;15.70;99.70;;;;;;5049351;28;20818;-66
2021/06/06 09:20:29;;;;;;;6.50;3.10;;;15.80;99.70;;;;;;5048981;28;20448;-64
2021/06/06 09:23:13;;;;;;;9.03;3.90;;;15.80;99.70;;;;;;5049052;28;20532;-65
2021/06/06 09:25:43;;;;;;;7.33;3.50;;;15.90;99.70;;;;;;5049461;28;20509;-65
2021/06/06 09:28:13;;;;;;;11.27;4.00;;;15.90;99.70;;;;;;5049239;28;20963;-65
2021/06/06 09:30:41;;;;;;;9.30;3.50;;;15.90;99.70;;;;;;5049252;28;20543;-65
2021/06/06 09:33:12;;;;;;;12.77;4.67;;;16.00;99.70;;;;;;5049030;28;20455;-66
2021/06/06 09:35:49;;;;;;;8.37;3.07;;;16.10;99.70;;;;;;5048368;28;20452;-63
2021/06/06 09:38:21;;;;;;;11.30;4.20;;;16.00;99.70;;;;;;5037093;28;20510;-65
2021/06/06 09:40:51;;;;;;;11.53;3.90;;;16.00;99.70;;;;;;5029196;28;20443;-65
2021/06/06 09:43:24;;;;;;;8.00;2.80;;;15.90;99.70;;;;;;5028553;28;20511;-65
2021/06/06 09:45:51;;;;;;;9.77;3.70;;;15.90;99.70;;;;;;5029594;28;20445;-65
2021/06/06 09:48:26;;;;;;;8.13;3.70;;;15.90;99.70;;;;;;5029013;28;20472;-65
2021/06/06 09:50:55;;;;;;;8.47;3.87;;;15.90;99.70;;;;;;5029156;28;20448;-67
2021/06/06 09:53:24;;;;;;;12.67;4.10;;;16.00;99.70;;;;;;5028581;28;20440;-67
2021/06/06 09:55:52;;;;;;;12.43;4.87;;;16.00;99.70;;;;;;5029056;28;20550;-66
2021/06/06 09:58:28;;;;;;;11.40;4.00;;;16.00;99.70;;;;;;5028737;28;20992;-65
2021/06/06 10:00:59;;;;;;;10.30;3.67;;;16.10;99.70;;;;;;5026971;28;20784;-65
2021/06/06 10:03:31;;;;;;;7.67;3.57;;;16.20;99.70;;;;;;5028549;28;20483;-64
2021/06/06 10:06:16;;;;;;;11.90;3.80;;;16.10;99.70;;;;;;5032331;28;20453;-65
2021/06/06 10:08:43;;;;;;;9.60;4.07;;;16.20;99.70;;;;;;5033052;28;20550;-65
2021/06/06 10:11:13;;;;;;;9.90;3.93;;;16.20;99.70;;;;;;5033092;28;20455;-65
2021/06/06 10:13:42;;;;;;;8.87;4.00;;;16.10;99.70;;;;;;5032723;28;20441;-65
2021/06/06 10:16:11;;;;;;;8.60;3.77;;;16.10;99.70;;;;;;5033163;28;20827;-65
2021/06/06 10:18:42;;;;;;;7.53;4.43;;;16.10;99.70;;;;;;5053335;28;20471;-63
2021/06/06 10:21:14;;;;;;;10.17;3.60;;;16.10;99.70;;;;;;5053563;28;20443;-64
2021/06/06 10:23:43;;;;;;;9.97;4.50;;;16.10;99.70;;;;;;5052937;28;20475;-63
2021/06/06 10:26:15;;;;;;;13.70;4.60;;;16.10;99.70;;;;;;5053281;28;20443;-65
2021/06/06 10:28:46;;;;;;;9.80;4.40;;;16.10;99.70;;;;;;5053485;28;20463;-64
2021/06/06 10:31:15;;;;;;;13.83;4.57;;;16.10;99.70;;;;;;5053404;28;21289;-65
2021/06/06 10:33:46;;;;;;;12.50;4.47;;;16.10;99.70;;;;;;5052579;28;20565;-65
2021/06/06 10:36:15;;;;;;;12.93;4.60;;;16.20;99.70;;;;;;5052742;28;20539;-68
2021/06/06 10:38:42;;;;;;;12.57;5.23;;;16.20;99.70;;;;;;5048192;28;20463;-66
2021/06/06 10:41:14;;;;;;;15.17;6.07;;;16.20;99.70;;;;;;5048468;28;20454;-66
2021/06/06 10:43:47;;;;;;;11.60;3.90;;;16.10;99.70;;;;;;5037956;28;20484;-67
2021/06/06 10:46:19;;;;;;;13.73;5.13;;;16.10;99.70;;;;;;5036097;28;20809;-65
2021/06/06 10:48:51;;;;;;;18.30;6.37;;;16.10;99.70;;;;;;5053235;28;20459;-64
2021/06/06 10:51:31;;;;;;;12.90;5.50;;;16.10;99.70;;;;;;5052116;28;20531;-64
2021/06/06 10:54:00;;;;;;;17.40;6.30;;;16.20;99.70;;;;;;5053028;28;20436;-65
2021/06/06 10:56:50;;;;;;;14.10;5.50;;;16.20;99.70;;;;;;5047455;28;20966;-63
2021/06/06 10:59:29;;;;;;;17.30;5.30;;;16.30;99.70;;;;;;5038760;28;20976;-64
2021/06/06 11:01:56;;;;;;;13.40;5.00;;;16.20;99.70;;;;;;5046040;28;20443;-65
2021/06/06 11:04:27;;;;;;;13.57;5.20;;;16.30;99.70;;;;;;5039729;28;20444;-63
2021/06/06 11:07:10;;;;;;;11.47;5.53;;;16.20;99.70;;;;;;5041434;28;20456;-64
2021/06/06 11:09:38;;;;;;;18.47;6.10;;;16.30;99.70;;;;;;5043299;28;20463;-64
2021/06/06 11:12:11;;;;;;;11.87;5.83;;;16.30;99.70;;;;;;5040926;28;20948;-65
2021/06/06 11:14:41;;;;;;;15.80;5.73;;;16.40;99.70;;;;;;5042283;28;20455;-65
2021/06/06 11:17:12;;;;;;;18.77;6.57;;;16.50;99.70;;;;;;5041113;28;20858;-63
2021/06/06 11:19:39;;;;;;;14.97;5.63;;;16.50;99.70;;;;;;5034589;28;20475;-66
2021/06/06 11:22:28;;;;;;;16.77;6.93;;;16.40;99.70;;;;;;5046125;28;20778;-65
2021/06/06 11:24:56;;;;;;;18.00;6.30;;;16.40;99.70;;;;;;5049523;28;21082;-66
2021/06/06 11:27:31;;;;;;;15.90;5.93;;;16.30;99.70;;;;;;5034549;28;20837;-65
2021/06/06 11:30:02;;;;;;;16.57;6.13;;;16.30;99.70;;;;;;5032235;28;21015;-66
2021/06/06 11:32:35;;;;;;;16.80;6.87;;;16.30;99.70;;;;;;5050536;28;20455;-66
2021/06/06 11:35:17;;;;;;;26.87;7.50;;;16.20;99.70;;;;;;5052237;28;20452;-63
2021/06/06 11:37:46;;;;;;;17.37;6.67;;;16.30;99.70;;;;;;5050889;28;20444;-67
2021/06/06 11:40:33;;;;;;;18.30;5.83;;;16.30;99.70;;;;;;5052081;28;20494;-66
2021/06/06 11:43:12;;;;;;;14.50;6.00;;;16.30;99.70;;;;;;5032069;28;21007;-65
2021/06/06 11:45:42;;;;;;;24.20;7.20;;;16.30;99.70;;;;;;5047967;28;20509;-65
2021/06/06 11:48:12;;;;;;;23.50;7.40;;;16.30;99.70;;;;;;5051663;28;20466;-64
2021/06/06 11:50:44;;;;;;;19.77;6.73;;;16.40;99.70;;;;;;5051479;28;20450;-64
2021/06/06 11:53:14;;;;;;;20.27;7.50;;;16.40;99.70;;;;;;5051071;28;20963;-64
2021/06/06 11:55:43;;;;;;;19.30;7.00;;;16.40;99.70;;;;;;5050523;28;20448;-64
2021/06/06 11:58:14;;;;;;;24.97;8.07;;;16.50;99.70;;;;;;5046591;28;20486;-64
2021/06/06 12:00:42;;;;;;;20.60;7.60;;;16.50;99.70;;;;;;5040840;28;20531;-64
2021/06/06 12:03:12;;;;;;;24.93;8.37;;;16.30;99.70;;;;;;5038875;28;21068;-65
2021/06/06 12:05:38;;;;;;;19.87;7.43;;;16.30;99.70;;;;;;5041910;28;20500;-64
2021/06/06 12:08:10;;;;;;;18.57;7.63;;;16.20;99.70;;;;;;5038770;28;20453;-65
2021/06/06 12:10:38;;;;;;;19.90;6.53;;;16.30;99.70;;;;;;5039786;28;20459;-64
2021/06/06 12:13:07;;;;;;;25.23;7.40;;;16.30;99.70;;;;;;5036959;28;20963;-64
2021/06/06 12:15:37;;;;;;;24.20;8.70;;;16.40;99.70;;;;;;5040191;28;20852;-66
2021/06/06 12:18:08;;;;;;;25.20;8.07;;;16.40;99.70;;;;;;5041022;28;20711;-65
2021/06/06 12:20:47;;;;;;;17.60;7.43;;;16.40;99.70;;;;;;5048835;28;20444;-64
2021/06/06 12:23:13;;;;;;;17.83;6.53;;;16.30;99.70;;;;;;5032532;28;20487;-64
2021/06/06 12:25:39;;;;;;;23.30;8.73;;;16.40;99.70;;;;;;5043515;28;20486;-65
2021/06/06 12:28:11;;;;;;;21.60;8.83;;;16.40;99.70;;;;;;5042770;28;20521;-65
2021/06/06 12:30:54;;;;;;;25.70;9.10;;;16.40;99.70;;;;;;5035346;28;20441;-65
2021/06/06 12:33:27;;;;;;;22.20;7.57;;;16.40;99.70;;;;;;5037841;28;20483;-64
2021/06/06 12:35:59;;;;;;;19.97;7.03;;;16.40;99.70;;;;;;5038802;28;20452;-65
2021/06/06 12:38:27;;;;;;;17.90;7.00;;;16.40;99.70;;;;;;5039806;28;20460;-66
2021/06/06 12:40:53;;;;;;;18.17;6.77;;;16.40;99.70;;;;;;5040967;28;20466;-66
2021/06/06 12:43:24;;;;;;;21.00;7.10;;;16.50;99.70;;;;;;5040741;28;20546;-63
2021/06/06 12:45:53;;;;;;;16.80;7.43;;;16.50;99.70;;;;;;5039451;28;20955;-64
2021/06/06 12:48:28;;;;;;;14.40;6.10;;;16.50;99.70;;;;;;5039177;28;20756;-65
2021/06/06 12:50:57;;;;;;;15.47;7.47;;;16.50;99.70;;;;;;5044959;28;20497;-65
2021/06/06 12:53:26;;;;;;;16.23;6.90;;;16.50;99.70;;;;;;5029676;28;20445;-65
2021/06/06 12:55:54;;;;;;;18.10;7.20;;;16.50;99.70;;;;;;5049318;28;20451;-64
2021/06/06 12:58:26;;;;;;;16.33;6.73;;;16.40;99.70;;;;;;5032149;28;20855;-64